createdAt,value
2022-11-22T07:46:49.896Z,3.67
2022-11-22T07:49:18.165Z,3.00
2022-11-22T07:51:46.265Z,2.77
2022-11-22T07:54:14.589Z,2.77
2022-11-22T07:56:42.720Z,2.60
2022-11-22T07:59:10.773Z,3.03
2022-11-22T08:01:41.827Z,3.53
2022-11-22T08:04:11.326Z,3.07
2022-11-22T08:06:39.396Z,2.80
2022-11-22T08:09:07.517Z,3.07
2022-11-22T08:16:55.585Z,2.50
2022-11-22T08:19:23.734Z,2.63
2022-11-22T08:21:58.137Z,2.90
2022-11-22T08:24:26.679Z,3.03
2022-11-22T08:26:54.739Z,3.50
2022-11-22T08:29:22.921Z,3.07
2022-11-22T08:31:51.265Z,3.33
2022-11-22T08:34:20.769Z,3.60
2022-11-22T08:36:49.061Z,3.47
2022-11-22T08:39:17.060Z,3.40
2022-11-22T08:41:45.114Z,3.90
2022-11-22T08:44:13.217Z,2.97
2022-11-22T08:46:41.332Z,4.97
2022-11-22T08:49:11.658Z,7.77
2022-11-22T08:51:44.898Z,5.40
2022-11-22T08:54:13.266Z,6.50
2022-11-22T08:56:41.634Z,4.67
2022-11-22T08:59:09.813Z,3.43
2022-11-22T09:01:38.008Z,3.60
2022-11-22T09:04:06.642Z,3.90
2022-11-22T09:09:44.357Z,3.53
2022-11-22T09:12:12.939Z,3.33
2022-11-22T09:14:41.076Z,3.70
2022-11-22T09:17:13.193Z,3.40
2022-11-22T09:19:44.183Z,2.60
2022-11-22T09:22:12.299Z,2.53
2022-11-22T09:24:41.802Z,3.33
2022-11-22T09:27:09.915Z,2.70
2022-11-22T09:29:38.024Z,2.63
2022-11-22T09:32:09.977Z,2.77
2022-11-22T09:34:38.073Z,2.27
2022-11-22T09:37:06.145Z,2.50
2022-11-22T09:39:34.264Z,2.27
2022-11-22T09:42:21.241Z,3.00
2022-11-22T09:45:36.277Z,2.27
2022-11-22T09:48:19.202Z,2.30
2022-11-22T09:50:56.323Z,2.00
2022-11-22T09:53:30.965Z,1.70
2022-11-22T09:56:03.928Z,1.80
2022-11-22T09:58:41.436Z,1.77
2022-11-22T10:01:16.367Z,1.80
2022-11-22T10:03:48.924Z,1.40
2022-11-22T10:06:25.585Z,1.77
2022-11-22T10:09:05.562Z,1.93
2022-11-22T10:11:39.583Z,1.50
2022-11-22T10:14:22.447Z,1.30
2022-11-22T10:16:56.900Z,1.20
2022-11-22T10:19:31.113Z,1.40
2022-11-22T10:21:59.930Z,1.00
2022-11-22T10:24:29.924Z,1.37
2022-11-22T10:27:00.550Z,1.23
2022-11-22T10:29:41.227Z,1.43
2022-11-22T10:32:18.498Z,1.87
2022-11-22T10:35:12.217Z,1.60
2022-11-22T10:37:50.477Z,1.70
2022-11-22T10:40:24.201Z,1.60
2022-11-22T10:43:20.688Z,1.30
2022-11-22T10:45:57.468Z,1.20
2022-11-22T10:48:30.099Z,1.40
2022-11-22T10:51:05.678Z,1.30
2022-11-22T10:53:48.041Z,1.17
2022-11-22T10:56:22.743Z,1.37
2022-11-22T10:59:06.583Z,1.10
2022-11-22T11:01:41.469Z,1.20
2022-11-22T11:04:13.702Z,1.23
2022-11-22T11:10:10.825Z,1.13
2022-11-22T11:12:41.503Z,1.40
2022-11-22T11:15:21.901Z,1.63
2022-11-22T11:17:56.987Z,1.23
2022-11-22T11:20:27.789Z,1.63
2022-11-22T11:25:47.733Z,1.70
2022-11-22T11:28:20.703Z,1.93
2022-11-22T11:30:51.908Z,2.27
2022-11-22T11:33:27.408Z,1.57
2022-11-22T11:35:58.917Z,1.60
2022-11-22T11:38:28.643Z,1.67
2022-11-22T11:40:56.680Z,1.53
2022-11-22T11:43:26.163Z,1.70
2022-11-22T11:45:56.087Z,1.60
2022-11-22T11:48:30.328Z,1.80
2022-11-22T11:51:12.986Z,1.80
2022-11-22T11:53:42.040Z,1.53
2022-11-22T11:56:21.336Z,1.90
2022-11-22T11:58:53.517Z,1.77
2022-11-22T12:01:22.242Z,2.00
2022-11-22T12:03:58.412Z,2.30
2022-11-22T12:06:29.781Z,2.10
2022-11-22T12:08:58.221Z,1.83
2022-11-22T12:11:35.372Z,2.20
2022-11-22T12:14:21.446Z,2.10
2022-11-22T12:16:55.455Z,2.50
2022-11-22T12:19:30.632Z,2.53
2022-11-22T12:22:04.962Z,2.43
2022-11-22T12:27:26.695Z,2.30
2022-11-22T12:29:55.108Z,2.47
2022-11-22T12:32:28.369Z,3.20
2022-11-22T12:35:04.101Z,3.50
2022-11-22T12:37:37.651Z,3.60
2022-11-22T12:40:16.012Z,3.27
2022-11-22T12:42:48.800Z,3.20
2022-11-22T12:45:24.952Z,2.90
2022-11-22T12:47:56.776Z,3.27
2022-11-22T12:48:32.833Z,2.53
2022-11-22T12:50:31.323Z,2.83
2022-11-22T12:53:07.368Z,3.70
2022-11-22T12:55:45.449Z,4.00
2022-11-22T12:58:22.940Z,3.50
2022-11-22T13:01:06.861Z,3.93
2022-11-22T13:03:39.661Z,4.53
2022-11-22T13:06:11.734Z,4.47
2022-11-22T13:08:48.693Z,4.30
2022-11-22T13:11:27.137Z,4.70
2022-11-22T13:14:01.270Z,4.70
2022-11-22T13:16:29.433Z,3.60
2022-11-22T13:19:01.458Z,4.50
2022-11-22T13:21:40.830Z,3.17
2022-11-22T13:24:25.954Z,3.07
2022-11-22T13:27:06.084Z,2.87
2022-11-22T13:29:36.753Z,2.67
2022-11-22T13:32:17.377Z,1.90
2022-11-22T13:35:06.143Z,1.20
2022-11-22T13:37:40.668Z,1.27
2022-11-22T13:40:24.357Z,0.90
2022-11-22T13:43:28.538Z,1.10
2022-11-22T13:45:58.921Z,1.40
2022-11-22T13:49:04.157Z,1.10
2022-11-22T13:51:53.728Z,1.13
2022-11-22T13:54:43.533Z,0.90
2022-11-22T13:57:30.902Z,1.00
2022-11-22T14:00:48.303Z,0.93
2022-11-22T14:03:37.251Z,1.30
2022-11-22T14:06:30.660Z,1.83
2022-11-22T14:09:28.699Z,1.00
2022-11-22T14:12:28.772Z,1.10
2022-11-22T14:15:26.124Z,0.80
2022-11-22T14:18:10.179Z,1.03
2022-11-22T14:20:47.745Z,1.20
2022-11-22T14:23:26.593Z,1.50
2022-11-22T14:26:09.076Z,1.30
2022-11-22T14:29:13.745Z,1.17
2022-11-22T14:31:42.200Z,1.07
2022-11-22T14:34:22.055Z,1.10
2022-11-22T14:37:23.405Z,1.30
2022-11-22T14:40:01.638Z,1.27
2022-11-22T14:42:50.563Z,1.07
2022-11-22T14:45:26.256Z,1.37
2022-11-22T14:48:02.163Z,1.20
2022-11-22T14:50:34.024Z,1.30
2022-11-22T14:53:10.459Z,1.07
2022-11-22T14:55:39.759Z,1.37
2022-11-22T14:58:13.163Z,1.30
2022-11-22T15:00:59.625Z,1.37
